Time;durP1;ratioP1;P1;durP2;ratioP2;P2;SDS_P1;SDS_P2;PMS_P1;PMS_P2;Temp;Humidity;BMP_temperature;BMP_pressure;BME280_temperature;BME280_humidity;BME280_pressure;Samples;Min_cycle;Max_cycle;Signal;HPM_P1;HPM_P2
2023/08/13 00:00:25;;;;;;;0.10;0.10;;;;;;;19.70;63.13;101727.00;5056039;28;20029;-82
2023/08/13 00:02:51;;;;;;;0.10;0.10;;;;;;;19.71;63.37;101728.75;5059158;28;20033;-83
2023/08/13 00:05:17;;;;;;;0.10;0.10;;;;;;;19.76;63.49;101719.59;5058766;28;20025;-81
2023/08/13 00:07:44;;;;;;;0.10;0.10;;;;;;;19.76;62.97;101725.00;5058281;28;20028;-82
2023/08/13 00:10:10;;;;;;;0.10;0.10;;;;;;;19.83;62.79;101715.75;5058012;28;20040;-83
2023/08/13 00:12:36;;;;;;;0.10;0.10;;;;;;;19.92;62.65;101711.75;5057682;28;20044;-83
2023/08/13 00:15:02;;;;;;;0.10;0.10;;;;;;;19.93;63.24;101706.31;5054660;28;20033;-83
2023/08/13 00:17:28;;;;;;;0.22;0.22;;;;;;;19.97;62.38;101705.22;5050707;28;20033;-83
2023/08/13 00:19:54;;;;;;;0.10;0.10;;;;;;;19.97;63.30;101693.59;5057564;28;20036;-83
2023/08/13 00:22:21;;;;;;;0.35;0.35;;;;;;;20.00;62.52;101697.03;5057543;28;20037;-83
2023/08/13 00:24:50;;;;;;;0.10;0.10;;;;;;;19.96;62.86;101698.13;5056518;28;20112;-83
2023/08/13 00:27:16;;;;;;;0.10;0.10;;;;;;;19.87;63.24;101690.44;5055830;28;20021;-82
2023/08/13 00:29:42;;;;;;;0.10;0.10;;;;;;;19.90;62.89;101695.69;5053048;28;20029;-83
2023/08/13 00:32:08;;;;;;;0.10;0.10;;;;;;;19.90;62.59;101693.00;5049804;28;20505;-83
2023/08/13 00:34:34;;;;;;;0.10;0.10;;;;;;;19.88;62.85;101705.66;5056840;28;20018;-82
2023/08/13 00:37:00;;;;;;;0.57;0.57;;;;;;;19.82;63.17;101706.75;5056753;28;20434;-83
2023/08/13 00:39:26;;;;;;;0.57;0.57;;;;;;;19.87;62.95;101702.06;5057729;28;20040;-82
2023/08/13 00:41:53;;;;;;;0.10;0.10;;;;;;;19.88;62.64;101702.97;5057053;28;20036;-82
2023/08/13 00:44:19;;;;;;;0.10;0.10;;;;;;;19.82;62.68;101708.59;5057303;28;20111;-82
2023/08/13 00:46:49;;;;;;;0.38;0.38;;;;;;;19.79;63.40;101703.31;5052298;28;20044;-82
2023/08/13 00:49:15;;;;;;;0.40;0.40;;;;;;;19.83;63.18;101705.00;5057493;28;20036;-81
2023/08/13 00:51:42;;;;;;;0.10;0.10;;;;;;;19.79;63.32;101703.31;5058437;28;20566;-81
2023/08/13 00:54:09;;;;;;;3.72;1.75;;;;;;;19.82;63.08;101708.59;5057009;28;20411;-81
2023/08/13 00:56:36;;;;;;;0.25;0.25;;;;;;;19.83;63.41;101699.59;5056346;28;20035;-82
2023/08/13 00:59:04;;;;;;;0.10;0.10;;;;;;;19.82;63.56;101704.06;5055581;28;20040;-82
2023/08/13 01:01:31;;;;;;;0.00;0.00;;;;;;;19.79;63.42;101703.31;5050693;28;20511;-82
2023/08/13 01:03:57;;;;;;;0.10;0.10;;;;;;;19.74;63.64;101703.56;5055261;28;20037;-81
2023/08/13 01:14:39;;;;;;;0.10;0.10;;;;;;;19.65;64.36;101698.56;5114482;27;20377;-82
2023/08/13 01:17:07;;;;;;;0.10;0.10;;;;;;;19.60;64.13;101693.44;5105467;27;20073;-82
2023/08/13 01:19:33;;;;;;;0.28;0.28;;;;;;;19.55;64.89;101695.41;5102869;28;20035;-83
2023/08/13 01:21:59;;;;;;;1.35;1.27;;;;;;;19.54;64.14;101701.75;5111179;28;20032;-83
2023/08/13 01:24:25;;;;;;;0.13;0.13;;;;;;;19.52;64.35;101696.44;5105386;28;20505;-83
2023/08/13 01:29:40;;;;;;;0.10;0.10;;;;;;;19.53;64.52;101697.31;5113808;27;20363;-83
2023/08/13 01:32:09;;;;;;;8.38;1.77;;;;;;;19.47;64.72;101705.66;5111894;28;20089;-83
2023/08/13 01:34:36;;;;;;;0.10;0.10;;;;;;;19.42;65.21;101705.84;5102416;28;20033;-83
2023/08/13 01:37:05;;;;;;;0.10;0.10;;;;;;;19.39;64.51;101701.47;5093305;28;20028;-83
2023/08/13 01:39:31;;;;;;;0.17;0.17;;;;;;;19.37;65.29;101700.66;5093769;28;20025;-83
2023/08/13 01:41:58;;;;;;;0.10;0.10;;;;;;;19.38;65.29;101705.09;5100762;28;20123;-82
2023/08/13 01:44:24;;;;;;;2.20;1.23;;;;;;;19.29;65.92;101694.75;5093172;28;20028;-83
2023/08/13 01:46:50;;;;;;;0.10;0.10;;;;;;;19.31;65.38;101702.75;5092812;28;20040;-82
2023/08/13 01:49:19;;;;;;;0.10;0.10;;;;;;;19.27;65.53;101698.47;5092937;28;20024;-83
2023/08/13 01:51:45;;;;;;;0.30;0.30;;;;;;;19.28;65.52;101698.38;5092507;28;20039;-83
2023/08/13 01:54:11;;;;;;;0.10;0.10;;;;;;;19.23;65.75;101697.72;5093672;28;20055;-83
2023/08/13 01:56:37;;;;;;;0.40;0.40;;;;;;;19.23;65.75;101697.72;5092906;28;20028;-83
2023/08/13 01:59:03;;;;;;;0.10;0.10;;;;;;;19.22;65.70;101693.28;5100929;28;20024;-83
2023/08/13 02:01:30;;;;;;;0.95;0.95;;;;;;;19.17;65.70;101685.41;5094633;28;20166;-83
2023/08/13 02:03:56;;;;;;;0.68;0.68;;;;;;;19.22;65.84;101691.44;5096592;28;20035;-83
2023/08/13 02:06:22;;;;;;;0.17;0.17;;;;;;;19.12;66.82;101691.94;5093924;28;20028;-83
2023/08/13 02:08:48;;;;;;;0.10;0.10;;;;;;;19.15;65.93;101692.69;5093512;28;20028;-83
2023/08/13 02:11:14;;;;;;;1.98;1.88;;;;;;;19.17;66.28;101689.91;5093603;28;20027;-83
2023/08/13 02:13:40;;;;;;;0.10;0.10;;;;;;;19.22;65.98;101691.44;5094140;28;20056;-84
2023/08/13 02:16:06;;;;;;;0.65;0.65;;;;;;;19.15;66.84;101686.41;5102051;28;20036;-81
2023/08/13 02:18:33;;;;;;;0.10;0.10;;;;;;;19.22;66.44;101686.06;5093472;28;20383;-82
2023/08/13 02:20:59;;;;;;;0.10;0.10;;;;;;;19.20;66.29;101681.72;5092863;28;20040;-83
2023/08/13 02:23:25;;;;;;;16.13;0.82;;;;;;;19.23;66.02;101679.75;5093915;28;20032;-84
2023/08/13 02:25:53;;;;;;;0.10;0.10;;;;;;;19.16;66.61;101680.97;5098201;28;20059;-83
2023/08/13 02:28:19;;;;;;;0.10;0.10;;;;;;;19.19;66.33;101678.16;5101505;28;20020;-84
2023/08/13 02:30:45;;;;;;;0.00;0.00;;;;;;;19.19;65.99;101679.97;5105261;28;20040;-82
2023/08/13 02:33:11;;;;;;;0.10;0.10;;;;;;;19.15;66.41;101684.63;5098986;28;20032;-82
2023/08/13 02:35:37;;;;;;;0.10;0.10;;;;;;;19.08;66.59;101683.97;5093798;28;20043;-81
2023/08/13 02:38:04;;;;;;;0.32;0.32;;;;;;;19.04;67.28;101685.06;5092984;28;20032;-83
2023/08/13 02:40:30;;;;;;;0.10;0.10;;;;;;;19.05;66.80;101686.81;5077499;28;20036;-81
2023/08/13 02:42:56;;;;;;;0.10;0.10;;;;;;;19.06;66.86;101688.53;5079157;28;20032;-82
2023/08/13 02:45:22;;;;;;;0.10;0.10;;;;;;;19.10;66.23;101691.09;5079018;28;20032;-83
2023/08/13 02:47:48;;;;;;;0.00;0.00;;;;;;;19.12;66.83;101684.72;5078043;28;20028;-82
2023/08/13 02:50:14;;;;;;;0.10;0.10;;;;;;;19.14;67.25;101679.28;5087630;28;20033;-83
2023/08/13 02:52:41;;;;;;;0.10;0.10;;;;;;;19.17;67.17;101679.16;5079148;28;20025;-82
2023/08/13 02:55:07;;;;;;;0.10;0.10;;;;;;;19.14;66.92;101681.97;5078338;28;20047;-83
2023/08/13 02:57:33;;;;;;;0.10;0.10;;;;;;;19.15;67.10;101678.34;5079120;28;20021;-83
2023/08/13 02:59:59;;;;;;;0.20;0.20;;;;;;;19.13;66.63;101682.91;5079557;28;20029;-82
2023/08/13 03:02:25;;;;;;;0.10;0.10;;;;;;;19.07;66.93;101676.84;5078226;28;20052;-82
2023/08/13 03:04:52;;;;;;;0.10;0.10;;;;;;;19.13;66.64;101670.38;5079689;28;20055;-83
2023/08/13 03:07:18;;;;;;;0.10;0.10;;;;;;;19.10;66.85;101662.41;5085508;28;20040;-82
2023/08/13 03:09:44;;;;;;;0.10;0.10;;;;;;;19.07;66.91;101674.16;5079502;28;20032;-82
2023/08/13 03:12:10;;;;;;;1.65;0.77;;;;;;;19.07;66.97;101676.00;5079169;28;20044;-83
2023/08/13 03:14:36;;;;;;;0.10;0.10;;;;;;;19.04;66.80;101676.09;5077216;28;20032;-84
2023/08/13 03:17:02;;;;;;;0.10;0.10;;;;;;;19.02;67.06;101681.56;5078157;28;20166;-80
2023/08/13 03:19:29;;;;;;;0.47;0.47;;;;;;;18.98;67.46;101682.63;5078293;28;20043;-83
2023/08/13 03:21:55;;;;;;;2.10;1.08;;;;;;;18.98;67.56;101671.00;5078412;28;20044;-83
2023/08/13 03:24:21;;;;;;;0.40;0.40;;;;;;;18.93;67.85;101679.28;5078226;28;20025;-82
2023/08/13 03:26:47;;;;;;;0.40;0.40;;;;;;;18.95;67.91;101679.19;5078634;28;20127;-82
2023/08/13 03:29:13;;;;;;;0.05;0.05;;;;;;;18.96;67.80;101676.44;5078677;28;20046;-83
2023/08/13 03:31:39;;;;;;;0.10;0.10;;;;;;;18.95;67.90;101669.31;5078874;28;20044;-84
2023/08/13 03:34:05;;;;;;;0.30;0.30;;;;;;;18.94;67.80;101664.03;5076381;28;20032;-82
2023/08/13 03:36:31;;;;;;;0.30;0.30;;;;;;;19.02;67.38;101675.31;5078148;28;20563;-83
2023/08/13 03:38:58;;;;;;;7.05;1.85;;;;;;;19.03;67.54;101677.06;5079178;28;20028;-84
2023/08/13 03:41:24;;;;;;;0.10;0.10;;;;;;;19.04;67.38;101670.75;5084868;28;20063;-83
2023/08/13 03:43:50;;;;;;;0.10;0.10;;;;;;;19.03;67.55;101672.56;5078418;28;20495;-83
2023/08/13 03:46:16;;;;;;;0.10;0.10;;;;;;;19.05;67.43;101670.69;5079221;28;20084;-82
2023/08/13 03:48:42;;;;;;;0.10;0.10;;;;;;;19.04;67.25;101674.31;5071842;28;20034;-83
2023/08/13 03:51:08;;;;;;;0.10;0.10;;;;;;;19.02;67.60;101676.19;5075843;28;20036;-84
2023/08/13 03:53:34;;;;;;;0.10;0.10;;;;;;;19.00;67.45;101677.19;5078349;28;20039;-82
2023/08/13 03:56:04;;;;;;;0.10;0.10;;;;;;;18.97;67.69;101671.97;5075289;28;20154;-83
2023/08/13 03:58:31;;;;;;;0.10;0.10;;;;;;;18.94;67.68;101682.81;5078267;28;20029;-83
2023/08/13 04:01:04;;;;;;;0.00;0.00;;;;;;;18.95;67.52;101684.56;5078441;28;20088;-82
2023/08/13 04:03:31;;;;;;;0.20;0.20;;;;;;;18.86;68.45;101683.97;5078360;28;20088;-82
2023/08/13 04:05:57;;;;;;;0.00;0.00;;;;;;;18.87;68.13;101679.50;5078001;28;20040;-81
2023/08/13 04:08:23;;;;;;;0.10;0.10;;;;;;;18.84;68.42;101682.28;5079142;28;20024;-82
2023/08/13 04:10:51;;;;;;;0.10;0.10;;;;;;;18.85;68.34;101687.59;5078420;28;20373;-81
2023/08/13 04:13:17;;;;;;;0.10;0.10;;;;;;;18.87;68.24;101690.22;5078107;28;20020;-82
2023/08/13 04:15:43;;;;;;;0.10;0.10;;;;;;;18.88;68.05;101686.63;5077684;28;20036;-82
2023/08/13 04:18:09;;;;;;;0.10;0.10;;;;;;;18.85;68.44;101692.97;5076227;28;20092;-82
2023/08/13 04:20:39;;;;;;;0.10;0.10;;;;;;;18.86;68.15;101691.16;5078690;28;20063;-81
2023/08/13 04:23:05;;;;;;;0.10;0.10;;;;;;;18.82;68.54;101690.41;5077909;28;20029;-81
2023/08/13 04:25:32;;;;;;;0.10;0.10;;;;;;;18.80;68.60;101691.41;5077950;28;20031;-83
2023/08/13 04:27:58;;;;;;;0.10;0.10;;;;;;;18.80;68.39;101692.28;5081955;28;20032;-82
2023/08/13 04:30:24;;;;;;;0.10;0.10;;;;;;;18.78;68.81;101694.16;5078514;28;20127;-83
2023/08/13 04:32:55;;;;;;;0.10;0.10;;;;;;;18.81;68.42;101696.72;5076842;28;20024;-82
2023/08/13 04:35:22;;;;;;;0.10;0.10;;;;;;;18.76;68.92;101696.91;5077604;28;20066;-82
2023/08/13 04:37:49;;;;;;;0.20;0.20;;;;;;;18.75;69.27;101700.53;5079122;28;20024;-83
2023/08/13 04:40:15;;;;;;;0.10;0.10;;;;;;;18.76;69.41;101696.91;5079474;28;20401;-81
2023/08/13 04:42:42;;;;;;;0.10;0.10;;;;;;;18.77;69.44;101703.16;5078251;28;20084;-82
2023/08/13 04:45:09;;;;;;;0.10;0.10;;;;;;;18.83;69.24;101704.69;5078808;28;20032;-83
2023/08/13 04:47:36;;;;;;;0.10;0.10;;;;;;;18.86;69.49;101712.66;5083215;28;20024;-83
2023/08/13 04:50:02;;;;;;;0.10;0.10;;;;;;;18.88;69.32;101710.78;5080663;28;20036;-81
2023/08/13 04:52:28;;;;;;;0.10;0.10;;;;;;;18.88;69.07;101716.16;5077341;28;20029;-83
2023/08/13 04:54:54;;;;;;;1.30;1.20;;;;;;;18.85;69.82;101717.13;5077593;28;20051;-82
2023/08/13 04:57:21;;;;;;;0.10;0.10;;;;;;;18.92;69.66;101712.44;5078113;28;20055;-82
2023/08/13 04:59:47;;;;;;;0.10;0.10;;;;;;;18.95;69.26;101716.78;5080606;28;20495;-82
2023/08/13 05:02:13;;;;;;;0.57;0.57;;;;;;;18.97;69.28;101710.41;5076267;28;20040;-83
2023/08/13 05:04:39;;;;;;;0.10;0.10;;;;;;;19.00;69.18;101710.28;5077492;28;20025;-83
2023/08/13 05:07:05;;;;;;;0.03;0.03;;;;;;;19.03;69.41;101704.78;5073558;28;20410;-82
2023/08/13 05:09:31;;;;;;;0.10;0.10;;;;;;;19.05;69.23;101707.41;5076811;28;20051;-83
2023/08/13 05:11:57;;;;;;;0.20;0.20;;;;;;;19.03;69.58;101706.63;5077620;28;20060;-83
2023/08/13 05:14:23;;;;;;;0.10;0.10;;;;;;;19.04;69.37;101706.53;5076656;28;20035;-83
2023/08/13 05:16:49;;;;;;;0.10;0.10;;;;;;;18.99;69.59;101711.25;5075880;28;20043;-83
2023/08/13 05:19:15;;;;;;;0.10;0.10;;;;;;;18.97;69.66;101707.72;5077188;28;20499;-83
2023/08/13 05:21:41;;;;;;;0.10;0.10;;;;;;;18.98;69.57;101706.81;5077041;28;20077;-83
2023/08/13 05:24:08;;;;;;;1.02;0.63;;;;;;;18.99;69.07;101708.56;5075514;28;20047;-83
2023/08/13 05:26:34;;;;;;;0.10;0.10;;;;;;;18.97;69.37;101702.38;5076120;28;20028;-82
2023/08/13 05:29:00;;;;;;;0.90;0.90;;;;;;;18.97;69.78;101699.69;5075404;28;20044;-83
2023/08/13 05:31:26;;;;;;;0.10;0.10;;;;;;;19.00;69.38;101701.34;5074990;28;20082;-83
2023/08/13 05:33:53;;;;;;;0.30;0.30;;;;;;;19.01;69.58;101701.28;5074855;28;20051;-83
2023/08/13 05:36:19;;;;;;;0.10;0.10;;;;;;;19.00;69.98;101693.31;5092855;28;20040;-80
2023/08/13 05:38:46;;;;;;;0.10;0.10;;;;;;;18.99;69.89;101697.81;5092194;28;20024;-81
2023/08/13 05:41:12;;;;;;;0.10;0.10;;;;;;;18.97;69.58;101699.69;5078166;28;20064;-82
2023/08/13 05:43:38;;;;;;;0.32;0.32;;;;;;;18.98;70.41;101708.59;5076115;28;20476;-83
2023/08/13 05:46:04;;;;;;;0.10;0.10;;;;;;;19.02;70.09;101703.03;5075603;28;20024;-82
2023/08/13 05:48:30;;;;;;;0.10;0.10;;;;;;;19.04;70.22;101709.22;5075335;28;20124;-82
2023/08/13 05:50:57;;;;;;;0.00;0.00;;;;;;;19.10;70.17;101710.78;5075097;28;20036;-83
2023/08/13 05:53:23;;;;;;;0.10;0.10;;;;;;;19.15;69.96;101708.78;5075987;28;20043;-83
2023/08/13 05:55:51;;;;;;;0.10;0.10;;;;;;;19.23;69.85;101700.41;5075994;28;20028;-82
2023/08/13 05:58:18;;;;;;;0.10;0.10;;;;;;;19.27;69.88;101706.53;5075935;28;20138;-82
2023/08/13 06:00:45;;;;;;;0.10;0.10;;;;;;;19.30;70.13;101712.63;5074861;28;20032;-82
2023/08/13 06:03:11;;;;;;;0.10;0.10;;;;;;;19.37;69.90;101708.72;5075326;28;20123;-82
2023/08/13 06:05:38;;;;;;;2.83;1.95;;;;;;;19.39;69.95;101714.91;5074782;28;20050;-83
2023/08/13 06:08:05;;;;;;;0.10;0.10;;;;;;;19.45;70.19;101711.09;5074629;28;20021;-82
2023/08/13 06:10:31;;;;;;;9.23;2.05;;;;;;;19.52;69.58;101715.25;5075463;28;20384;-83
2023/08/13 06:12:57;;;;;;;0.10;0.10;;;;;;;19.52;70.04;101722.44;5076001;28;20044;-82
2023/08/13 06:15:23;;;;;;;0.10;0.10;;;;;;;19.58;69.33;101721.28;5079766;28;20029;-82
2023/08/13 06:17:49;;;;;;;4.15;0.25;;;;;;;19.63;69.49;101730.03;5090006;28;20430;-83
2023/08/13 06:20:17;;;;;;;0.10;0.10;;;;;;;19.62;69.64;101717.53;5098238;28;20088;-83
2023/08/13 06:22:44;;;;;;;0.10;0.10;;;;;;;19.66;69.80;101720.00;5081825;28;20021;-83
2023/08/13 06:25:10;;;;;;;0.10;0.10;;;;;;;19.67;69.72;101716.38;5078505;28;20152;-82
2023/08/13 06:27:36;;;;;;;0.10;0.10;;;;;;;19.69;69.40;101716.34;5078432;28;20491;-82
2023/08/13 06:30:03;;;;;;;0.10;0.10;;;;;;;19.73;69.42;101720.63;5078587;28;20033;-82
2023/08/13 06:32:29;;;;;;;0.10;0.10;;;;;;;19.81;69.68;101717.59;5079023;28;20032;-83
2023/08/13 06:34:55;;;;;;;0.10;0.10;;;;;;;19.84;69.70;101720.19;5078204;28;20037;-83
2023/08/13 06:37:21;;;;;;;0.10;0.10;;;;;;;19.87;69.42;101717.34;5079138;28;20536;-83
2023/08/13 06:39:47;;;;;;;0.10;0.10;;;;;;;19.93;69.21;101705.44;5079543;28;20529;-83
2023/08/13 06:42:13;;;;;;;0.10;0.10;;;;;;;20.00;69.13;101712.25;5078622;28;20028;-82
2023/08/13 06:44:39;;;;;;;0.10;0.10;;;;;;;20.04;68.98;101709.38;5076856;28;20559;-83
2023/08/13 06:47:05;;;;;;;0.65;0.65;;;;;;;20.09;69.12;101711.84;5087053;28;20058;-83
2023/08/13 06:49:31;;;;;;;0.10;0.10;;;;;;;20.18;68.95;101711.41;5077714;28;20037;-83
2023/08/13 06:51:57;;;;;;;0.10;0.10;;;;;;;20.28;68.84;101719.06;5078549;28;20064;-83
2023/08/13 06:54:24;;;;;;;0.10;0.10;;;;;;;20.37;68.58;101718.63;5078118;28;20040;-83
2023/08/13 06:56:50;;;;;;;0.00;0.00;;;;;;;20.47;68.23;101711.00;5078914;28;20024;-83
2023/08/13 06:59:16;;;;;;;1.00;1.00;;;;;;;20.55;67.82;101711.50;5077210;28;20020;-82
2023/08/13 07:01:42;;;;;;;0.10;0.10;;;;;;;20.72;67.73;101712.53;5078525;28;20495;-82
2023/08/13 07:04:08;;;;;;;0.10;0.10;;;;;;;20.91;67.66;101707.97;5078230;28;20021;-82
2023/08/13 07:06:34;;;;;;;0.10;0.10;;;;;;;21.05;66.57;101720.75;5077144;28;20137;-83
2023/08/13 07:09:03;;;;;;;0.10;0.10;;;;;;;21.18;66.02;101718.31;5077019;28;20039;-83
2023/08/13 07:11:32;;;;;;;0.10;0.10;;;;;;;21.28;65.20;101722.28;5079206;28;20135;-83
2023/08/13 07:13:58;;;;;;;0.20;0.20;;;;;;;21.34;65.01;101713.88;5075109;28;20036;-83
2023/08/13 07:16:24;;;;;;;0.85;0.85;;;;;;;21.39;64.11;101710.06;5078883;28;20377;-83
2023/08/13 07:18:50;;;;;;;0.10;0.10;;;;;;;21.50;63.50;101711.25;5079715;28;20059;-82
2023/08/13 07:21:16;;;;;;;0.10;0.10;;;;;;;21.61;63.86;101716.13;5085598;28;20019;-82
2023/08/13 07:23:43;;;;;;;0.20;0.20;;;;;;;21.73;63.45;101713.72;5080037;28;20111;-82
2023/08/13 07:26:09;;;;;;;0.20;0.20;;;;;;;21.79;62.57;101708.88;5081855;28;20024;-83
2023/08/13 07:28:38;;;;;;;0.10;0.10;;;;;;;21.89;61.88;101714.63;5077639;28;20042;-82
2023/08/13 07:31:04;;;;;;;0.10;0.10;;;;;;;22.00;61.98;101726.69;5081163;28;20103;-82
2023/08/13 07:33:31;;;;;;;0.13;0.13;;;;;;;22.05;61.36;101719.22;5080747;28;20659;-82
2023/08/13 07:36:00;;;;;;;3.53;2.40;;;;;;;22.15;60.47;101712.34;5080065;28;20028;-84
2023/08/13 07:38:27;;;;;;;0.10;0.10;;;;;;;22.19;60.57;101713.91;5086599;28;20082;-82
2023/08/13 07:40:55;;;;;;;0.10;0.10;;;;;;;22.32;60.79;101713.22;5078245;28;20055;-84
2023/08/13 07:43:21;;;;;;;0.00;0.00;;;;;;;22.36;59.47;101720.22;5076290;28;20035;-84
2023/08/13 07:45:47;;;;;;;0.10;0.10;;;;;;;22.38;58.80;101719.22;5077325;28;20479;-83
2023/08/13 07:48:13;;;;;;;0.15;0.15;;;;;;;22.49;58.78;101717.72;5072823;28;20041;-83
2023/08/13 07:50:40;;;;;;;0.20;0.20;;;;;;;22.53;58.29;101730.09;5086714;28;20088;-83
2023/08/13 07:53:06;;;;;;;0.10;0.10;;;;;;;22.56;58.50;101713.72;5077121;28;20100;-83
2023/08/13 07:55:32;;;;;;;0.10;0.10;;;;;;;22.72;58.49;101713.72;5073185;28;20064;-83
2023/08/13 07:57:58;;;;;;;0.20;0.20;;;;;;;22.82;58.06;101714.91;5078764;28;20028;-83
2023/08/13 08:00:26;;;;;;;0.10;0.10;;;;;;;22.87;56.33;101718.22;5075004;28;20056;-83
2023/08/13 08:02:53;;;;;;;0.10;0.10;;;;;;;22.94;56.01;101710.63;5074889;28;20031;-83
2023/08/13 08:05:20;;;;;;;0.10;0.10;;;;;;;23.06;56.66;101709.91;5070524;28;20495;-84
2023/08/13 08:07:46;;;;;;;0.30;0.30;;;;;;;23.10;55.67;101710.59;5076782;28;20033;-83
2023/08/13 08:10:13;;;;;;;0.03;0.03;;;;;;;23.15;55.83;101711.19;5076497;28;20043;-82
2023/08/13 08:12:39;;;;;;;0.00;0.00;;;;;;;23.30;56.33;101727.50;5074588;28;20041;-83
2023/08/13 08:15:05;;;;;;;0.10;0.10;;;;;;;23.43;56.84;101718.53;5071147;28;20032;-83
2023/08/13 08:17:33;;;;;;;0.17;0.17;;;;;;;23.59;56.43;101721.19;5073859;28;20071;-83
2023/08/13 08:20:00;;;;;;;0.10;0.10;;;;;;;23.65;54.12;101721.78;5068548;28;20061;-84
2023/08/13 08:22:26;;;;;;;0.10;0.10;;;;;;;23.65;55.05;101724.47;5071747;28;20024;-83
2023/08/13 08:24:53;;;;;;;0.30;0.30;;;;;;;23.78;54.61;101714.66;5069800;28;20091;-83
2023/08/13 08:27:20;;;;;;;0.17;0.17;;;;;;;23.79;54.46;101719.09;5070728;28;20032;-83
2023/08/13 08:29:46;;;;;;;0.10;0.10;;;;;;;23.86;54.41;101715.03;5071144;28;20069;-83
2023/08/13 08:32:12;;;;;;;0.00;0.00;;;;;;;23.90;54.01;101719.28;5068795;28;20024;-84
2023/08/13 08:34:38;;;;;;;0.40;0.40;;;;;;;23.87;52.59;101733.00;5073378;28;20035;-83
2023/08/13 08:37:05;;;;;;;0.10;0.10;;;;;;;23.85;51.94;101726.84;5069152;28;20021;-83
2023/08/13 08:39:31;;;;;;;0.10;0.10;;;;;;;23.82;51.80;101721.59;5068434;28;20372;-83
2023/08/13 08:41:58;;;;;;;0.10;0.10;;;;;;;23.74;51.86;101715.81;5078864;28;20024;-82
2023/08/13 08:44:24;;;;;;;0.00;0.00;;;;;;;23.74;53.04;101713.97;5095145;28;20028;-82
2023/08/13 08:46:53;;;;;;;0.10;0.10;;;;;;;23.78;52.94;101716.50;5079781;28;20044;-83
2023/08/13 08:49:21;;;;;;;0.10;0.10;;;;;;;23.80;53.30;101717.25;5072321;28;20032;-80
2023/08/13 08:51:48;;;;;;;13.45;0.75;;;;;;;23.75;52.39;101710.28;5068773;28;20047;-80
2023/08/13 08:54:15;;;;;;;0.10;0.10;;;;;;;23.76;52.21;101711.16;5070422;28;20682;-84
2023/08/13 08:56:41;;;;;;;0.10;0.10;;;;;;;23.82;52.44;101710.78;5070452;28;20044;-82
2023/08/13 08:59:08;;;;;;;0.00;0.00;;;;;;;23.77;51.87;101706.63;5071310;28;20446;-83
2023/08/13 09:01:34;;;;;;;0.00;0.00;;;;;;;23.86;51.76;101708.75;5072888;28;20024;-83
2023/08/13 09:04:01;;;;;;;0.10;0.10;;;;;;;23.94;52.12;101702.88;5072911;28;20138;-82
2023/08/13 09:07:03;;;;;;;0.08;0.08;;;;;;;24.08;52.51;101711.00;5070766;28;20032;-84
2023/08/13 09:09:30;;;;;;;0.00;0.00;;;;;;;24.11;52.63;101705.38;5070209;28;20033;-84
2023/08/13 09:11:57;;;;;;;0.30;0.30;;;;;;;24.22;53.11;101699.28;5070262;28;20064;-83
2023/08/13 09:14:25;;;;;;;0.13;0.13;;;;;;;24.26;52.51;101692.69;5080919;28;20122;-83
2023/08/13 09:16:53;;;;;;;0.30;0.30;;;;;;;24.41;52.60;101707.09;5079862;28;20074;-83
2023/08/13 09:19:23;;;;;;;0.10;0.10;;;;;;;24.49;52.47;101703.91;5079855;28;20150;-85
2023/08/13 09:21:52;;;;;;;0.10;0.10;;;;;;;24.57;52.56;101703.38;5081255;28;20025;-82
2023/08/13 09:24:29;;;;;;;0.00;0.00;;;;;;;24.60;52.70;101700.47;5087310;28;20054;-83
2023/08/13 09:26:55;;;;;;;0.20;0.20;;;;;;;24.55;52.32;101700.78;5087561;28;20067;-84
2023/08/13 09:29:21;;;;;;;0.10;0.10;;;;;;;24.50;52.24;101689.34;5099773;28;20037;-84
2023/08/13 09:31:47;;;;;;;0.10;0.10;;;;;;;24.43;52.09;101683.47;5096542;28;20039;-83
2023/08/13 09:34:13;;;;;;;0.30;0.30;;;;;;;24.42;52.68;101681.75;5098429;28;20019;-83
2023/08/13 09:36:39;;;;;;;0.10;0.10;;;;;;;24.32;51.85;101686.03;5110467;28;20048;-82
2023/08/13 09:39:07;;;;;;;0.17;0.17;;;;;;;24.34;52.38;101678.69;5104331;28;20087;-83
2023/08/13 09:41:34;;;;;;;0.08;0.08;;;;;;;24.34;51.81;101678.69;5094673;28;20037;-81
2023/08/13 09:44:08;;;;;;;0.00;0.00;;;;;;;24.45;51.25;101675.25;5093679;28;20099;-83
2023/08/13 09:46:36;;;;;;;0.10;0.10;;;;;;;24.50;51.59;101668.56;5095007;28;20051;-82
2023/08/13 09:49:04;;;;;;;0.00;0.00;;;;;;;24.57;51.29;101668.16;5089954;28;20019;-82
2023/08/13 09:51:32;;;;;;;0.17;0.17;;;;;;;24.59;51.15;101667.09;5107439;28;20015;-82
2023/08/13 09:54:20;;;;;;;0.00;0.00;;;;;;;24.45;50.09;101678.84;5108099;28;20024;-82
2023/08/13 09:56:55;;;;;;;0.00;0.00;;;;;;;24.45;49.97;101665.31;5098258;28;20032;-82
2023/08/13 09:59:21;;;;;;;0.00;0.00;;;;;;;24.59;50.34;101666.25;5108431;28;20109;-82
2023/08/13 10:01:48;;;;;;;0.00;0.00;;;;;;;24.66;50.42;101665.75;5097473;28;20028;-83
2023/08/13 10:04:15;;;;;;;0.08;0.08;;;;;;;24.71;50.24;101662.72;5101904;28;20028;-83
2023/08/13 10:06:42;;;;;;;0.00;0.00;;;;;;;24.81;50.24;101666.56;5096886;28;20029;-83
2023/08/13 10:09:10;;;;;;;0.00;0.00;;;;;;;24.91;50.43;101661.38;5095391;28;20012;-83
2023/08/13 10:11:36;;;;;;;0.00;0.00;;;;;;;24.96;49.86;101667.38;5085589;28;20399;-82
2023/08/13 10:14:02;;;;;;;0.17;0.17;;;;;;;24.94;48.43;101661.16;5082372;28;20036;-83
2023/08/13 10:16:29;;;;;;;0.05;0.05;;;;;;;24.92;48.88;101662.25;5092018;28;20021;-83
2023/08/13 10:18:58;;;;;;;0.10;0.10;;;;;;;24.90;49.34;101666.91;5095844;28;20028;-83
2023/08/13 10:21:39;;;;;;;0.00;0.00;;;;;;;24.91;49.54;101672.22;5086879;28;20024;-84
2023/08/13 10:24:12;;;;;;;0.10;0.10;;;;;;;24.78;49.37;101674.88;5097392;28;20013;-83
2023/08/13 10:26:41;;;;;;;0.10;0.10;;;;;;;24.61;49.55;101672.41;5095103;28;20048;-82
2023/08/13 10:29:24;;;;;;;0.25;0.25;;;;;;;24.55;50.25;101671.00;5089136;28;20050;-82
2023/08/13 10:32:13;;;;;;;0.20;0.20;;;;;;;24.54;50.15;101680.94;5087893;28;20032;-84
2023/08/13 10:45:08;;;;;;;0.10;0.10;;;;;;;24.57;50.85;101666.31;5114017;27;1165106;-84
2023/08/13 10:47:47;;;;;;;0.10;0.10;;;;;;;24.69;50.46;101656.53;5123690;28;20033;-83
2023/08/13 10:53:22;;;;;;;0.10;0.10;;;;;;;24.93;50.45;101658.56;5137790;27;1191579;-83
2023/08/13 10:55:51;;;;;;;0.10;0.10;;;;;;;25.07;49.85;101644.06;5156962;27;20099;-84
2023/08/13 11:03:55;;;;;;;0.10;0.10;;;;;;;25.36;48.56;101647.47;5053968;28;20423;-84
2023/08/13 11:06:23;;;;;;;0.00;0.00;;;;;;;25.57;48.22;101646.94;5029987;28;20120;-82
2023/08/13 11:08:50;;;;;;;0.10;0.10;;;;;;;25.57;46.89;101649.66;5032152;28;20105;-82
2023/08/13 11:11:17;;;;;;;0.10;0.10;;;;;;;25.76;48.12;101641.94;5035563;28;20057;-84
2023/08/13 11:13:44;;;;;;;0.10;0.10;;;;;;;25.84;47.98;101631.41;5034626;28;20102;-83
2023/08/13 11:16:11;;;;;;;0.10;0.10;;;;;;;25.92;47.80;101629.97;5035092;28;20041;-83
2023/08/13 11:18:37;;;;;;;0.00;0.00;;;;;;;25.98;48.10;101635.84;5036912;28;20052;-84
2023/08/13 11:21:05;;;;;;;0.00;0.00;;;;;;;26.02;47.39;101636.47;5038259;28;20497;-82
2023/08/13 11:23:32;;;;;;;0.10;0.10;;;;;;;26.11;47.99;101626.81;5037357;28;20053;-82
2023/08/13 11:25:58;;;;;;;0.10;0.10;;;;;;;26.11;47.90;101633.09;5036180;28;20037;-83
2023/08/13 11:28:26;;;;;;;0.13;0.13;;;;;;;26.10;48.04;101633.22;5037082;28;20052;-82
2023/08/13 11:30:54;;;;;;;0.00;0.00;;;;;;;26.04;48.23;101634.50;5036649;28;20034;-84
2023/08/13 11:33:21;;;;;;;0.00;0.00;;;;;;;25.99;48.23;101631.25;5033519;28;20041;-83
2023/08/13 11:35:47;;;;;;;0.40;0.40;;;;;;;25.86;48.38;101628.59;5035426;28;20038;-82
2023/08/13 11:38:14;;;;;;;0.10;0.10;;;;;;;25.78;48.80;101633.69;5036810;28;20057;-83
2023/08/13 11:40:41;;;;;;;0.30;0.30;;;;;;;25.67;48.92;101632.63;5034484;28;20049;-83
2023/08/13 11:43:11;;;;;;;0.00;0.00;;;;;;;25.57;49.22;101630.66;5034436;28;20041;-83
2023/08/13 11:45:39;;;;;;;0.17;0.17;;;;;;;25.32;49.05;101626.94;5029856;28;20041;-82
2023/08/13 11:53:49;;;;;;;0.75;0.30;;;;;;;25.28;49.64;101628.16;5085010;27;1849154;-84
2023/08/13 11:56:16;;;;;;;0.00;0.00;;;;;;;25.28;49.14;101636.28;5149735;28;20035;-80
2023/08/13 11:58:43;;;;;;;0.10;0.10;;;;;;;25.24;49.43;101632.06;5149718;27;20115;-81